KNJK/NJK METAR and TAF weather

Enter ICAO airport designator
Station Type Date Time Source
KNJK METAR 2021/03/04 20:56 UTC NOAA

KNJK 042056Z 23006KT 10SM FEW030 FEW250 22/02 A3023 RMK AO2 SLP253 FU FEW030 T02220022 58006 $


Station Type Date Time Source
KNJK Decoded METAR 2021/03/04 20:56 UTC NOAA

El Centro, Naval Air Facility, CA, United States (KNJK) 32-49-30N 115-39-38W -13M
Mar 04, 2021 - 03:56 PM EST / 2021.03.04 2056 UTC
Wind: from the SW (230 degrees) at 7 MPH (6 KT):0
Visibility: 10 mile(s):0
Sky conditions: mostly clear
Temperature: 72.0 F (22.2 C)
Dew Point: 36.0 F (2.2 C)
Relative Humidity: 26%
Pressure (altimeter): 30.23 in. Hg (1023 hPa)
Pressure tendency: 0.02 inches (0.6 hPa) lower than three hours ago
ob: KNJK 042056Z 23006KT 10SM FEW030 FEW250 22/02 A3023 RMK AO2 SLP253 FU FEW030 T02220022 58006
cycle: 21

Station Type Date Time Source
KNJK TAF 2021/03/04 15:58 UTC NOAA

TAF KNJK 0415/0515 VRB06KT 9999 FEW060 QNH3015INS
FM050600 26004KT 9999 FEW250 QNH3015INS T23/0423Z T08/0513Z FS30130

Example: see airport list